createdAt,value
2018-06-04T00:04:45.324Z,16.00
2018-06-04T00:07:13.608Z,16.10
2018-06-04T00:09:41.861Z,16.10
2018-06-04T00:12:10.194Z,16.20
2018-06-04T00:14:38.451Z,16.10
2018-06-04T00:17:06.739Z,16.10
2018-06-04T00:19:35.043Z,16.10
2018-06-04T00:22:03.605Z,16.00
2018-06-04T00:24:32.894Z,16.00
2018-06-04T00:27:01.150Z,16.00
2018-06-04T00:31:57.537Z,15.90
2018-06-04T00:34:25.815Z,15.90
2018-06-04T00:36:54.236Z,15.90
2018-06-04T00:39:22.513Z,16.00
2018-06-04T00:44:19.084Z,16.10
2018-06-04T00:46:47.377Z,16.10
2018-06-04T00:49:16.792Z,16.10
2018-06-04T00:51:45.040Z,16.20
2018-06-04T00:54:13.302Z,16.30
2018-06-04T00:56:41.770Z,16.30
2018-06-04T00:59:10.002Z,16.30
2018-06-04T01:01:38.273Z,16.30
2018-06-04T01:04:06.531Z,16.30
2018-06-04T01:06:34.820Z,16.30
2018-06-04T01:09:03.122Z,16.30
2018-06-04T01:11:31.560Z,16.30
2018-06-04T01:13:59.924Z,16.40
2018-06-04T01:16:28.218Z,16.40
2018-06-04T01:18:56.470Z,16.40
2018-06-04T01:21:24.734Z,16.40
2018-06-04T01:23:52.993Z,16.40
2018-06-04T01:26:21.251Z,16.40
2018-06-04T01:28:49.503Z,16.50
2018-06-04T01:31:17.950Z,16.50
2018-06-04T01:33:46.226Z,16.50
2018-06-04T01:36:14.484Z,16.50
2018-06-04T01:38:42.746Z,16.50
2018-06-04T01:41:11.008Z,16.50
2018-06-04T01:43:39.299Z,16.50
2018-06-04T01:46:07.557Z,16.40
2018-06-04T01:48:36.148Z,16.40
2018-06-04T01:51:04.391Z,16.40
2018-06-04T01:53:32.728Z,16.40
2018-06-04T01:56:00.995Z,16.30
2018-06-04T01:58:29.250Z,16.30
2018-06-04T02:00:57.519Z,16.30
2018-06-04T02:03:25.772Z,16.30
2018-06-04T02:05:54.032Z,16.30
2018-06-04T02:08:22.360Z,16.30
2018-06-04T02:10:50.625Z,16.30
2018-06-04T02:13:18.911Z,16.40
2018-06-04T02:15:47.180Z,16.40
2018-06-04T02:18:15.462Z,16.40
2018-06-04T02:20:43.724Z,16.40
2018-06-04T02:23:12.056Z,16.40
2018-06-04T02:25:40.469Z,16.30
2018-06-04T02:28:08.723Z,16.30
2018-06-04T02:30:36.981Z,16.30
2018-06-04T02:33:05.580Z,16.30
2018-06-04T02:35:33.839Z,16.30
2018-06-04T02:38:02.132Z,16.30
2018-06-04T02:40:30.388Z,16.30
2018-06-04T02:42:58.663Z,16.30
2018-06-04T02:45:26.938Z,16.30
2018-06-04T02:47:55.231Z,16.30
2018-06-04T02:50:23.495Z,16.20
2018-06-04T02:52:51.781Z,16.20
2018-06-04T02:55:20.051Z,16.20
2018-06-04T02:57:48.332Z,16.20
2018-06-04T03:00:16.611Z,16.20
2018-06-04T03:02:45.055Z,16.20
2018-06-04T03:05:13.407Z,16.20
2018-06-04T03:07:41.675Z,16.20
2018-06-04T03:10:09.933Z,16.20
2018-06-04T03:12:38.385Z,16.20
2018-06-04T03:15:06.996Z,16.10
2018-06-04T03:17:35.298Z,16.10
2018-06-04T03:20:03.582Z,16.00
2018-06-04T03:22:31.988Z,16.00
2018-06-04T03:25:00.260Z,16.00
2018-06-04T03:27:28.503Z,16.00
2018-06-04T03:29:56.751Z,16.10
2018-06-04T03:32:25.024Z,16.00
2018-06-04T03:34:53.301Z,16.10
2018-06-04T03:37:21.759Z,16.00
2018-06-04T03:39:50.038Z,16.00
2018-06-04T03:42:18.366Z,16.00
2018-06-04T03:44:46.654Z,15.90
2018-06-04T03:47:15.137Z,15.90
2018-06-04T03:49:43.383Z,15.90
2018-06-04T03:52:11.660Z,15.90
2018-06-04T03:54:39.922Z,15.80
2018-06-04T03:57:08.173Z,15.80
2018-06-04T03:59:36.515Z,15.70
2018-06-04T04:02:04.767Z,15.70
2018-06-04T04:04:33.034Z,15.70
2018-06-04T04:09:29.541Z,15.70
2018-06-04T04:11:57.798Z,15.70
2018-06-04T04:14:26.088Z,15.70
2018-06-04T04:16:54.344Z,15.70
2018-06-04T04:19:22.664Z,15.70
2018-06-04T04:21:51.099Z,15.70
2018-06-04T04:24:19.370Z,15.80
2018-06-04T04:26:47.685Z,15.80
2018-06-04T04:29:15.941Z,15.80
2018-06-04T04:31:44.224Z,15.90
2018-06-04T04:34:12.489Z,15.90
2018-06-04T04:36:40.760Z,16.00
2018-06-04T04:39:09.359Z,15.90
2018-06-04T04:41:37.650Z,16.00
2018-06-04T04:44:05.925Z,16.00
2018-06-04T04:46:34.213Z,16.10
2018-06-04T04:49:02.498Z,16.20
2018-06-04T04:51:30.768Z,16.30
2018-06-04T04:53:59.036Z,16.30
2018-06-04T04:56:27.311Z,16.40
2018-06-04T04:58:55.580Z,16.50
2018-06-04T05:01:23.826Z,16.50
2018-06-04T05:03:52.106Z,16.50
2018-06-04T05:06:20.363Z,16.60
2018-06-04T05:08:48.654Z,16.60
2018-06-04T05:11:17.280Z,16.60
2018-06-04T05:13:45.553Z,16.60
2018-06-04T05:16:13.977Z,16.60
2018-06-04T05:18:42.226Z,16.70
2018-06-04T05:21:10.545Z,16.80
2018-06-04T05:23:38.831Z,16.90
2018-06-04T05:26:07.102Z,17.00
2018-06-04T05:31:03.550Z,17.10
2018-06-04T05:33:31.852Z,17.10
2018-06-04T05:36:00.138Z,17.20
2018-06-04T05:38:28.405Z,17.30
2018-06-04T05:40:56.698Z,17.40
2018-06-04T05:43:24.997Z,17.40
2018-06-04T05:45:53.248Z,17.50
2018-06-04T05:48:21.530Z,17.70
2018-06-04T05:50:50.600Z,17.80
2018-06-04T05:53:19.461Z,17.90
2018-06-04T05:55:48.341Z,18.00
2018-06-04T05:58:16.657Z,18.10
2018-06-04T06:00:45.693Z,18.10
2018-06-04T06:03:17.886Z,18.20
2018-06-04T06:05:46.749Z,18.30
2018-06-04T06:08:15.677Z,18.40
2018-06-04T06:10:44.585Z,18.30
2018-06-04T06:13:13.437Z,18.30
2018-06-04T06:15:42.598Z,18.20
2018-06-04T06:18:11.432Z,18.10
2018-06-04T06:20:42.908Z,17.90
2018-06-04T06:23:11.400Z,17.90
2018-06-04T06:25:40.304Z,17.80
2018-06-04T06:28:09.154Z,17.80
2018-06-04T06:30:41.247Z,17.80
2018-06-04T06:33:09.553Z,17.90
2018-06-04T06:35:38.447Z,18.00
2018-06-04T06:38:07.291Z,18.20
2018-06-04T06:40:36.176Z,18.30
2018-06-04T06:43:05.077Z,18.40
2018-06-04T06:45:33.976Z,18.40
2018-06-04T06:48:02.843Z,18.50
2018-06-04T06:50:31.709Z,18.50
2018-06-04T06:53:00.767Z,18.50
2018-06-04T06:55:29.596Z,18.60
2018-06-04T06:57:58.468Z,18.70
2018-06-04T07:00:27.333Z,18.80
2018-06-04T07:02:56.241Z,18.80
2018-06-04T07:05:25.287Z,18.80
2018-06-04T07:07:54.129Z,19.00
2018-06-04T07:10:23.101Z,19.10
2018-06-04T07:12:51.976Z,19.20
2018-06-04T07:15:20.826Z,19.20
2018-06-04T07:17:49.883Z,19.20
2018-06-04T07:20:19.079Z,19.30
2018-06-04T07:22:47.937Z,19.40
2018-06-04T07:27:45.501Z,19.50
2018-06-04T07:30:14.578Z,19.60
2018-06-04T07:32:42.864Z,19.70
2018-06-04T07:35:11.721Z,19.70
2018-06-04T07:37:40.797Z,19.80
2018-06-04T07:40:09.690Z,19.70
2018-06-04T07:42:38.520Z,19.80
2018-06-04T07:45:07.398Z,19.90
2018-06-04T07:47:36.315Z,20.00
2018-06-04T07:50:05.227Z,20.10
2018-06-04T07:52:34.076Z,20.10
2018-06-04T07:55:03.659Z,20.10
2018-06-04T07:57:32.523Z,20.10
2018-06-04T08:00:01.449Z,20.20
2018-06-04T08:02:30.316Z,20.30
2018-06-04T08:04:59.208Z,20.30
2018-06-04T08:07:28.199Z,20.40
2018-06-04T08:09:57.131Z,20.40
2018-06-04T08:12:26.198Z,20.30
2018-06-04T08:14:55.119Z,20.40
2018-06-04T08:17:24.028Z,20.30
2018-06-04T08:19:52.923Z,20.30
2018-06-04T08:22:21.807Z,20.40
2018-06-04T08:24:50.661Z,20.50
2018-06-04T08:27:19.495Z,20.50
2018-06-04T08:29:48.444Z,20.60
2018-06-04T08:32:17.255Z,20.70
2018-06-04T08:34:46.227Z,20.70
2018-06-04T08:37:15.042Z,20.70
2018-06-04T08:39:43.896Z,20.80
2018-06-04T08:42:12.822Z,20.80
2018-06-04T08:44:41.687Z,20.80
2018-06-04T08:47:10.504Z,20.80
2018-06-04T08:49:39.392Z,20.80
2018-06-04T08:52:08.297Z,20.80
2018-06-04T08:54:37.140Z,20.80
2018-06-04T08:57:06.087Z,20.90
2018-06-04T08:59:34.904Z,21.00
2018-06-04T09:02:03.768Z,21.10
2018-06-04T09:04:32.654Z,21.20
2018-06-04T09:07:01.554Z,21.30
2018-06-04T09:09:30.432Z,21.20
2018-06-04T09:11:59.368Z,21.10
2018-06-04T09:14:28.217Z,21.10
2018-06-04T09:16:57.109Z,20.90
2018-06-04T09:19:27.602Z,20.90
2018-06-04T09:21:56.525Z,20.90
2018-06-04T09:24:25.567Z,20.80
2018-06-04T09:26:54.775Z,20.90
2018-06-04T09:29:23.625Z,21.00
2018-06-04T09:31:52.545Z,21.00
2018-06-04T09:34:21.488Z,21.10
2018-06-04T09:36:50.698Z,21.20
2018-06-04T09:39:19.566Z,21.20
2018-06-04T09:41:48.443Z,21.30
2018-06-04T09:44:17.320Z,21.40
2018-06-04T09:46:45.765Z,21.50
2018-06-04T09:49:14.703Z,21.50
2018-06-04T09:51:43.564Z,21.60
2018-06-04T09:54:12.579Z,21.70
2018-06-04T09:56:41.510Z,21.80
2018-06-04T09:59:10.402Z,21.90
2018-06-04T10:01:39.648Z,22.10
2018-06-04T10:04:08.568Z,22.30
2018-06-04T10:06:37.481Z,22.50
2018-06-04T10:09:08.331Z,22.60
2018-06-04T10:14:06.388Z,23.10
2018-06-04T10:16:35.291Z,23.20
2018-06-04T10:19:04.212Z,23.10
2018-06-04T10:21:33.186Z,23.20
2018-06-04T10:24:02.080Z,23.10
2018-06-04T10:26:31.024Z,23.30
2018-06-04T10:28:59.876Z,23.40
2018-06-04T10:31:31.575Z,23.60
2018-06-04T10:34:00.536Z,23.70
2018-06-04T10:36:29.509Z,23.80
2018-06-04T10:38:58.662Z,23.90
2018-06-04T10:41:27.496Z,24.10
2018-06-04T10:43:56.383Z,24.10
2018-06-04T10:46:25.258Z,23.90
2018-06-04T10:48:54.203Z,24.10
2018-06-04T10:51:23.049Z,24.20
2018-06-04T10:53:52.035Z,24.10
2018-06-04T10:56:20.969Z,24.20
2018-06-04T10:58:49.834Z,24.10
2018-06-04T11:01:18.818Z,24.20
2018-06-04T11:03:47.669Z,24.20
2018-06-04T11:06:16.561Z,24.30
2018-06-04T11:08:45.673Z,24.30
2018-06-04T11:11:14.552Z,24.40
2018-06-04T11:13:43.473Z,24.40
2018-06-04T11:16:12.429Z,24.40
2018-06-04T11:18:41.455Z,24.70
2018-06-04T11:21:10.326Z,24.80
2018-06-04T11:23:39.186Z,25.00
2018-06-04T11:26:08.312Z,24.90
2018-06-04T11:28:37.212Z,24.90
2018-06-04T11:31:06.138Z,25.00
2018-06-04T11:33:35.032Z,24.90
2018-06-04T11:36:03.901Z,24.80
2018-06-04T11:38:32.779Z,24.60
2018-06-04T11:41:01.701Z,24.80
2018-06-04T11:43:30.602Z,24.90
2018-06-04T11:45:59.497Z,24.90
2018-06-04T11:48:28.361Z,25.00
2018-06-04T11:50:57.285Z,24.90
2018-06-04T11:53:26.153Z,25.00
2018-06-04T11:55:55.025Z,24.90
2018-06-04T11:58:24.126Z,24.90
2018-06-04T12:00:53.051Z,24.90
2018-06-04T12:03:21.921Z,25.30
2018-06-04T12:05:50.782Z,25.40
2018-06-04T12:08:19.935Z,25.20
2018-06-04T12:10:48.751Z,25.00
2018-06-04T12:13:17.805Z,25.00
2018-06-04T12:15:46.630Z,24.90
2018-06-04T12:18:15.495Z,24.90
2018-06-04T12:20:44.375Z,24.90
2018-06-04T12:23:13.220Z,25.00
2018-06-04T12:25:42.060Z,25.10
2018-06-04T12:28:10.914Z,25.40
2018-06-04T12:30:39.969Z,25.70
2018-06-04T12:33:08.796Z,25.80
2018-06-04T12:35:37.655Z,25.80
2018-06-04T12:38:06.527Z,25.70
2018-06-04T12:40:35.364Z,25.60
2018-06-04T12:43:04.244Z,25.30
2018-06-04T12:45:33.064Z,25.20
2018-06-04T12:48:01.911Z,24.70
2018-06-04T12:50:30.963Z,24.50
2018-06-04T12:52:59.847Z,24.50
2018-06-04T12:55:28.751Z,24.70
2018-06-04T12:57:57.637Z,24.70
2018-06-04T13:00:26.479Z,24.90
2018-06-04T13:02:55.336Z,25.00
2018-06-04T13:05:24.185Z,25.10
2018-06-04T13:07:53.029Z,25.10
2018-06-04T13:10:22.161Z,25.20
2018-06-04T13:12:51.143Z,25.30
2018-06-04T13:15:19.986Z,25.50
2018-06-04T13:17:48.864Z,25.70
2018-06-04T13:20:17.689Z,25.70
2018-06-04T13:22:46.587Z,25.80
2018-06-04T13:25:15.258Z,26.00
2018-06-04T13:27:44.127Z,26.20
2018-06-04T13:30:13.119Z,26.30
2018-06-04T13:32:41.943Z,26.40
2018-06-04T13:35:10.471Z,26.00
2018-06-04T13:37:39.337Z,26.00
2018-06-04T13:40:08.184Z,26.00
2018-06-04T13:42:36.726Z,25.90
2018-06-04T13:45:05.917Z,25.70
2018-06-04T13:47:34.667Z,25.80
2018-06-04T13:50:03.618Z,26.10
2018-06-04T13:52:32.517Z,26.30
2018-06-04T13:55:01.347Z,26.30
2018-06-04T13:57:29.895Z,26.30
2018-06-04T13:59:58.442Z,26.20
2018-06-04T14:02:27.325Z,26.20
2018-06-04T14:04:57.536Z,26.10
2018-06-04T14:09:54.885Z,26.10
2018-06-04T14:12:23.725Z,26.10
2018-06-04T14:14:52.618Z,26.30
2018-06-04T14:17:21.473Z,26.20
2018-06-04T14:19:50.369Z,26.40
2018-06-04T14:22:18.926Z,26.30
2018-06-04T14:24:47.458Z,26.50
2018-06-04T14:27:16.522Z,26.80
2018-06-04T14:29:45.330Z,26.60
2018-06-04T14:32:13.951Z,26.80
2018-06-04T14:34:42.762Z,27.30
2018-06-04T14:37:11.313Z,27.50
2018-06-04T14:44:36.824Z,27.00
2018-06-04T14:47:05.454Z,27.10
2018-06-04T14:49:34.054Z,27.30
2018-06-04T14:52:02.779Z,27.60
2018-06-04T14:54:31.347Z,28.00
2018-06-04T14:56:59.914Z,28.10
2018-06-04T14:59:28.863Z,28.10
2018-06-04T15:01:57.430Z,28.00
2018-06-04T15:04:26.070Z,27.90
2018-06-04T15:06:55.056Z,27.70
2018-06-04T15:09:23.638Z,27.70
2018-06-04T15:11:52.184Z,27.60
2018-06-04T15:14:21.278Z,27.50
2018-06-04T15:16:49.855Z,27.50
2018-06-04T15:19:18.313Z,27.50
2018-06-04T15:21:46.863Z,27.30
2018-06-04T15:24:15.416Z,27.10
2018-06-04T15:26:44.027Z,26.90
2018-06-04T15:29:12.574Z,26.50
2018-06-04T15:31:41.442Z,26.40
2018-06-04T15:34:10.598Z,26.30
2018-06-04T15:36:39.465Z,26.00
2018-06-04T15:39:08.841Z,25.90
2018-06-04T15:41:37.748Z,25.90
2018-06-04T15:44:06.334Z,26.00
2018-06-04T15:46:35.175Z,26.00
2018-06-04T15:49:03.714Z,26.10
2018-06-04T15:51:32.318Z,26.10
2018-06-04T15:54:00.924Z,25.90
2018-06-04T15:56:29.773Z,25.90
2018-06-04T15:58:58.309Z,26.00
2018-06-04T16:03:55.357Z,26.40
2018-06-04T16:06:23.874Z,26.50
2018-06-04T16:08:52.442Z,26.50
2018-06-04T16:11:20.971Z,26.40
2018-06-04T16:13:49.725Z,26.10
2018-06-04T16:16:18.611Z,25.80
2018-06-04T16:18:47.461Z,25.50
2018-06-04T16:21:16.023Z,25.10
2018-06-04T16:23:44.613Z,24.70
2018-06-04T16:26:13.453Z,24.60
2018-06-04T16:28:42.278Z,24.30
2018-06-04T16:31:11.119Z,24.30
2018-06-04T16:33:39.927Z,24.00
2018-06-04T16:36:08.826Z,23.90
2018-06-04T16:38:37.672Z,23.80
2018-06-04T16:41:06.510Z,23.50
2018-06-04T16:43:35.537Z,23.20
2018-06-04T16:46:04.464Z,23.10
2018-06-04T16:48:33.386Z,23.00
2018-06-04T16:51:02.238Z,22.70
2018-06-04T16:53:31.103Z,22.60
2018-06-04T16:55:59.941Z,22.70
2018-06-04T16:58:28.804Z,22.60
2018-06-04T17:00:57.674Z,22.40
2018-06-04T17:03:26.474Z,22.30
2018-06-04T17:05:55.386Z,22.20
2018-06-04T17:08:24.202Z,22.10
2018-06-04T17:10:54.159Z,22.10
2018-06-04T17:13:23.052Z,22.10
2018-06-04T17:15:51.921Z,22.00
2018-06-04T17:18:20.759Z,22.00
2018-06-04T17:20:49.655Z,22.00
2018-06-04T17:23:18.504Z,21.90
2018-06-04T17:25:47.407Z,21.70
2018-06-04T17:28:16.319Z,21.80
2018-06-04T17:30:45.230Z,21.80
2018-06-04T17:33:14.100Z,21.60
2018-06-04T17:35:42.353Z,21.60
2018-06-04T17:38:11.205Z,21.50
2018-06-04T17:40:40.024Z,21.40
2018-06-04T17:43:08.904Z,21.40
2018-06-04T17:45:37.761Z,21.30
2018-06-04T17:48:06.632Z,21.10
2018-06-04T17:50:34.986Z,20.90
2018-06-04T17:53:03.854Z,20.70
2018-06-04T17:55:32.704Z,20.60
2018-06-04T17:58:01.582Z,20.40
2018-06-04T18:00:30.418Z,20.40
2018-06-04T18:02:59.392Z,20.10
2018-06-04T18:05:28.429Z,20.00
2018-06-04T18:07:57.285Z,19.90
2018-06-04T18:10:26.391Z,19.80
2018-06-04T18:15:23.904Z,19.70
2018-06-04T18:17:52.980Z,19.60
2018-06-04T18:20:21.850Z,19.50
2018-06-04T18:22:50.747Z,19.50
2018-06-04T18:25:20.239Z,19.40
2018-06-04T18:27:49.141Z,19.30
2018-06-04T18:30:18.051Z,19.30
2018-06-04T18:32:46.905Z,19.20
2018-06-04T18:35:15.908Z,19.10
2018-06-04T18:37:44.750Z,19.00
2018-06-04T18:40:13.623Z,18.90
2018-06-04T18:42:42.516Z,18.90
2018-06-04T18:45:11.437Z,18.90
2018-06-04T18:47:40.348Z,18.90
2018-06-04T18:50:09.246Z,18.80
2018-06-04T18:52:38.119Z,18.80
2018-06-04T18:55:07.097Z,18.70
2018-06-04T18:57:35.910Z,18.70
2018-06-04T19:00:05.678Z,18.60
2018-06-04T19:02:34.632Z,18.60
2018-06-04T19:05:03.559Z,18.40
2018-06-04T19:07:32.480Z,18.20
2018-06-04T19:10:01.347Z,18.20
2018-06-04T19:12:30.648Z,18.00
2018-06-04T19:14:59.609Z,18.00
2018-06-04T19:17:28.652Z,18.00
2018-06-04T19:19:57.533Z,17.90
2018-06-04T19:22:25.882Z,17.80
2018-06-04T19:24:54.289Z,17.80
2018-06-04T19:27:23.208Z,17.70
2018-06-04T19:29:51.864Z,17.70
2018-06-04T19:32:20.237Z,17.80
2018-06-04T19:34:48.552Z,17.70
2018-06-04T19:39:44.988Z,17.60
2018-06-04T19:42:13.352Z,17.60
2018-06-04T19:44:41.730Z,17.50
2018-06-04T19:47:10.039Z,17.50
2018-06-04T19:49:38.398Z,17.50
2018-06-04T19:52:06.808Z,17.50
2018-06-04T19:54:35.621Z,17.50
2018-06-04T19:57:04.889Z,17.60
2018-06-04T19:59:33.213Z,17.60
2018-06-04T20:02:01.535Z,17.70
2018-06-04T20:04:29.797Z,17.70
2018-06-04T20:06:58.264Z,17.60
2018-06-04T20:09:26.571Z,17.60
2018-06-04T20:11:57.854Z,17.70
2018-06-04T20:14:26.345Z,17.70
2018-06-04T20:16:54.684Z,17.60
2018-06-04T20:19:23.003Z,17.60
2018-06-04T20:21:51.282Z,17.60
2018-06-04T20:24:19.592Z,17.60
2018-06-04T20:26:47.897Z,17.60
2018-06-04T20:31:44.439Z,17.60
2018-06-04T20:34:12.754Z,17.40
2018-06-04T20:36:41.042Z,17.50
2018-06-04T20:39:09.603Z,17.40
2018-06-04T20:41:37.892Z,17.30
2018-06-04T20:46:34.463Z,17.30
2018-06-04T20:49:02.767Z,17.30
2018-06-04T20:51:31.054Z,17.30
2018-06-04T20:53:59.347Z,17.30
2018-06-04T20:56:27.999Z,17.30
2018-06-04T20:58:56.390Z,17.30
2018-06-04T21:01:24.696Z,17.20
2018-06-04T21:03:53.955Z,17.20
2018-06-04T21:06:22.266Z,17.30
2018-06-04T21:08:50.548Z,17.30
2018-06-04T21:11:18.873Z,17.30
2018-06-04T21:16:15.276Z,17.20
2018-06-04T21:18:43.573Z,17.10
2018-06-04T21:21:11.906Z,17.00
2018-06-04T21:23:40.275Z,17.00
2018-06-04T21:28:36.871Z,17.10
2018-06-04T21:31:05.178Z,17.10
2018-06-04T21:33:34.505Z,17.10
2018-06-04T21:36:02.846Z,17.10
2018-06-04T21:38:31.238Z,17.10
2018-06-04T21:41:00.046Z,17.20
2018-06-04T21:43:28.634Z,17.20
2018-06-04T21:45:56.917Z,17.20
2018-06-04T21:48:25.225Z,17.20
2018-06-04T21:50:53.616Z,17.20
2018-06-04T21:53:21.932Z,17.20
2018-06-04T21:55:50.232Z,17.30
2018-06-04T21:58:18.641Z,17.30
2018-06-04T22:00:47.085Z,17.30
2018-06-04T22:03:15.379Z,17.30
2018-06-04T22:05:44.734Z,17.20
2018-06-04T22:08:14.130Z,17.20
2018-06-04T22:10:42.478Z,17.20
2018-06-04T22:13:11.351Z,17.10
2018-06-04T22:15:39.663Z,17.10
2018-06-04T22:18:08.079Z,17.10
2018-06-04T22:20:36.364Z,17.10
2018-06-04T22:23:04.700Z,17.10
2018-06-04T22:25:32.998Z,17.10
2018-06-04T22:28:01.367Z,17.10
2018-06-04T22:30:29.687Z,17.10
2018-06-04T22:32:57.971Z,17.10
2018-06-04T22:35:26.287Z,17.10
2018-06-04T22:37:54.594Z,17.10
2018-06-04T22:40:23.062Z,17.20
2018-06-04T22:42:51.383Z,17.20
2018-06-04T22:45:19.676Z,17.10
2018-06-04T22:47:48.022Z,17.10
2018-06-04T22:50:16.350Z,17.00
2018-06-04T22:52:44.651Z,17.00
2018-06-04T22:55:12.991Z,17.00
2018-06-04T22:57:41.357Z,17.10
2018-06-04T23:00:09.953Z,17.10
2018-06-04T23:02:38.232Z,17.10
2018-06-04T23:05:06.544Z,17.10
2018-06-04T23:07:34.877Z,17.10
2018-06-04T23:10:03.214Z,17.10
2018-06-04T23:12:31.527Z,17.10
2018-06-04T23:14:59.850Z,17.10
2018-06-04T23:17:28.161Z,17.10
2018-06-04T23:19:56.459Z,17.10
2018-06-04T23:22:24.885Z,17.10
2018-06-04T23:24:53.181Z,17.10
2018-06-04T23:27:21.501Z,17.10
2018-06-04T23:29:49.800Z,17.10
2018-06-04T23:32:18.099Z,17.10
2018-06-04T23:34:46.392Z,17.20
2018-06-04T23:37:14.684Z,17.20
2018-06-04T23:42:11.041Z,17.20
2018-06-04T23:44:39.482Z,17.20
2018-06-04T23:47:07.832Z,17.20
2018-06-04T23:49:36.140Z,17.20
2018-06-04T23:52:04.424Z,17.20
2018-06-04T23:54:32.691Z,17.20
2018-06-04T23:57:00.954Z,17.20
2018-06-04T23:59:29.292Z,17.20
